Time;durP1;ratioP1;P1;durP2;ratioP2;P2;SDS_P1;SDS_P2;PMS_P1;PMS_P2;Temp;Humidity;BMP_temperature;BMP_pressure;BME280_temperature;BME280_humidity;BME280_pressure;Samples;Min_cycle;Max_cycle;Signal;HPM_P1;HPM_P2
2022/06/01 00:01:13;;;;;;;4.15;2.90;;;12.20;82.90;;;;;;4800731;29;20462;-78
2022/06/01 00:03:42;;;;;;;5.40;3.95;;;12.20;83.00;;;;;;4810211;29;20135;-79
2022/06/01 00:06:11;;;;;;;6.22;4.50;;;12.10;83.20;;;;;;4805364;29;20137;-78
2022/06/01 00:08:38;;;;;;;5.72;4.38;;;12.10;83.30;;;;;;4806404;29;20066;-78
2022/06/01 00:11:06;;;;;;;5.80;4.38;;;12.10;83.40;;;;;;4803762;29;20046;-78
2022/06/01 00:13:33;;;;;;;5.57;3.95;;;12.10;83.50;;;;;;4806457;29;20081;-74
2022/06/01 00:16:00;;;;;;;4.85;3.83;;;12.00;83.50;;;;;;4803316;29;20066;-74
2022/06/01 00:18:28;;;;;;;5.22;3.83;;;12.00;83.50;;;;;;4803101;29;20046;-74
2022/06/01 00:20:54;;;;;;;6.68;4.40;;;12.00;83.50;;;;;;4803249;29;20043;-75
2022/06/01 00:23:22;;;;;;;5.38;3.60;;;12.00;83.50;;;;;;4788379;29;20123;-75
2022/06/01 00:25:49;;;;;;;5.70;3.88;;;12.00;83.60;;;;;;4792212;29;20054;-75
2022/06/01 00:28:16;;;;;;;4.10;3.25;;;12.00;83.60;;;;;;4795448;29;20062;-75
2022/06/01 00:30:44;;;;;;;5.20;3.40;;;12.00;83.60;;;;;;4803235;29;20094;-79
2022/06/01 00:33:11;;;;;;;6.68;3.30;;;12.00;84.30;;;;;;4803517;29;20057;-79
2022/06/01 00:35:38;;;;;;;4.32;3.05;;;12.10;83.70;;;;;;4803783;29;20561;-79
2022/06/01 00:38:06;;;;;;;5.45;3.83;;;12.10;83.70;;;;;;4791374;29;20129;-79
2022/06/01 00:40:38;;;;;;;6.45;4.43;;;12.10;83.80;;;;;;4802307;29;20050;-75
2022/06/01 00:43:21;;;;;;;4.90;3.47;;;12.10;83.90;;;;;;4802477;29;20070;-74
2022/06/01 00:45:48;;;;;;;4.78;3.45;;;12.10;83.90;;;;;;4802915;29;20058;-75
2022/06/01 00:48:16;;;;;;;4.15;3.00;;;12.10;83.90;;;;;;4770292;29;1120859;-75
2022/06/01 00:50:44;;;;;;;4.60;3.33;;;12.10;83.90;;;;;;4794928;29;20058;-74
2022/06/01 00:53:19;;;;;;;5.00;4.25;;;12.10;83.90;;;;;;4801266;29;20047;-75
2022/06/01 00:55:54;;;;;;;4.53;2.95;;;12.20;83.90;;;;;;4794743;29;20355;-74
2022/06/01 00:58:32;;;;;;;4.88;3.47;;;12.20;83.90;;;;;;4807939;29;20458;-75
2022/06/01 01:00:59;;;;;;;4.63;3.47;;;12.20;83.90;;;;;;4793806;29;20555;-74
2022/06/01 01:03:35;;;;;;;4.75;3.50;;;12.20;83.90;;;;;;4773059;29;20107;-75
2022/06/01 01:06:17;;;;;;;5.90;3.85;;;12.20;83.90;;;;;;4791578;29;20051;-75
2022/06/01 01:08:48;;;;;;;6.25;4.22;;;12.20;84.00;;;;;;4791157;29;20416;-75
2022/06/01 01:11:20;;;;;;;5.57;4.15;;;12.10;84.10;;;;;;4794608;29;20108;-75
2022/06/01 01:13:50;;;;;;;7.93;5.03;;;12.10;84.10;;;;;;4803663;29;20054;-74
2022/06/01 01:16:20;;;;;;;7.28;5.43;;;12.10;84.10;;;;;;4771522;30;20057;-74
2022/06/01 01:18:51;;;;;;;5.97;4.25;;;12.10;84.10;;;;;;4804358;29;20483;-74
2022/06/01 01:21:22;;;;;;;7.93;6.38;;;12.10;84.10;;;;;;4770638;30;20047;-74
2022/06/01 01:24:08;;;;;;;8.70;6.50;;;12.00;84.40;;;;;;4788447;29;20047;-75
2022/06/01 01:26:36;;;;;;;8.60;6.90;;;11.90;84.50;;;;;;4804751;29;20100;-74
2022/06/01 01:29:09;;;;;;;10.65;7.68;;;11.80;84.70;;;;;;4770729;29;20043;-75
2022/06/01 01:31:38;;;;;;;10.07;8.63;;;11.80;85.00;;;;;;4791436;29;20155;-75
2022/06/01 01:34:06;;;;;;;9.60;7.38;;;11.70;85.30;;;;;;4777550;30;20062;-75
2022/06/01 01:36:44;;;;;;;8.65;6.32;;;11.70;85.40;;;;;;4785911;29;20414;-74
2022/06/01 01:39:14;;;;;;;9.05;7.63;;;11.60;85.60;;;;;;4795615;29;20150;-77
2022/06/01 01:41:48;;;;;;;8.65;6.90;;;11.60;86.20;;;;;;4813468;29;20052;-77
2022/06/01 01:44:34;;;;;;;7.03;5.32;;;11.50;86.30;;;;;;4785937;29;20162;-77
2022/06/01 01:47:01;;;;;;;6.00;4.18;;;11.50;86.40;;;;;;4779270;29;20051;-77
2022/06/01 01:49:34;;;;;;;7.80;5.50;;;11.50;86.30;;;;;;4792028;29;20090;-77
2022/06/01 01:52:02;;;;;;;;;;;11.50;86.40;;;;;;4801219;29;20138;-76
2022/06/01 01:54:38;;;;;;;5.03;3.50;;;11.50;86.40;;;;;;4787102;30;19925;-76
2022/06/01 01:57:43;;;;;;;4.53;3.13;;;11.60;86.60;;;;;;4788585;29;20070;-77
2022/06/01 02:00:17;;;;;;;4.05;2.63;;;11.60;86.40;;;;;;4772436;29;20047;-77
2022/06/01 02:03:03;;;;;;;5.07;3.20;;;11.60;86.50;;;;;;4800352;29;20054;-76
2022/06/01 02:06:08;;;;;;;4.57;3.25;;;11.60;86.60;;;;;;4803308;29;20442;-76
2022/06/01 02:08:53;;;;;;;4.28;2.72;;;11.60;86.70;;;;;;4786900;29;20112;-76
2022/06/01 02:14:41;;;;;;;4.57;2.35;;;11.60;86.80;;;;;;4773593;30;20062;-76
2022/06/01 02:17:20;;;;;;;4.18;2.53;;;11.60;86.70;;;;;;4791104;29;20104;-76
2022/06/01 02:19:55;;;;;;;3.83;2.60;;;11.70;86.90;;;;;;4803802;29;20051;-76
2022/06/01 02:22:23;;;;;;;4.35;3.00;;;11.70;86.90;;;;;;4788639;29;20418;-76
2022/06/01 02:24:50;;;;;;;3.85;2.67;;;11.60;86.90;;;;;;4789847;30;20047;-76
2022/06/01 02:27:19;;;;;;;3.30;2.40;;;11.60;87.50;;;;;;4773481;29;20117;-76
2022/06/01 02:29:57;;;;;;;3.72;2.15;;;11.70;87.00;;;;;;4788355;29;20108;-80
2022/06/01 02:32:28;;;;;;;3.53;2.35;;;11.70;87.10;;;;;;4803434;29;20063;-80
2022/06/01 02:35:00;;;;;;;4.03;2.55;;;11.70;87.20;;;;;;4788013;29;20088;-81
2022/06/01 02:37:29;;;;;;;4.05;2.10;;;11.70;87.20;;;;;;4803821;29;20051;-81
2022/06/01 02:39:59;;;;;;;3.22;2.13;;;11.70;87.80;;;;;;4788324;29;20506;-81
2022/06/01 02:42:26;;;;;;;3.75;2.40;;;11.70;87.20;;;;;;4788586;29;20108;-81
2022/06/01 02:45:05;;;;;;;2.83;1.55;;;11.70;87.30;;;;;;4773501;30;20561;-81
2022/06/01 02:47:37;;;;;;;3.78;2.22;;;11.70;87.40;;;;;;4783737;29;20055;-81
2022/06/01 02:50:14;;;;;;;2.67;1.60;;;11.70;87.50;;;;;;4803891;29;20059;-81
2022/06/01 02:52:41;;;;;;;4.57;1.83;;;11.60;87.50;;;;;;4803517;29;20468;-81
2022/06/01 02:55:09;;;;;;;2.60;1.55;;;11.60;87.50;;;;;;4773402;30;20510;-81
2022/06/01 02:57:37;;;;;;;2.75;1.77;;;11.60;87.50;;;;;;4788262;30;20084;-81
2022/06/01 03:00:09;;;;;;;2.85;1.48;;;11.60;87.50;;;;;;4788040;30;20108;-81
2022/06/01 03:02:40;;;;;;;2.65;1.10;;;11.60;87.50;;;;;;4788267;30;20130;-82
2022/06/01 03:05:07;;;;;;;2.95;1.35;;;11.60;87.60;;;;;;4806597;29;20103;-81
2022/06/01 03:07:35;;;;;;;2.20;1.13;;;11.60;87.70;;;;;;4787950;30;20051;-81
2022/06/01 03:10:02;;;;;;;2.25;1.33;;;11.60;87.70;;;;;;4787792;30;20463;-77
2022/06/01 03:12:29;;;;;;;2.88;1.48;;;11.60;87.80;;;;;;4803017;29;20063;-76
2022/06/01 03:14:56;;;;;;;1.70;1.20;;;11.60;87.80;;;;;;4788121;30;20154;-77
2022/06/01 03:17:23;;;;;;;1.85;1.00;;;11.50;87.90;;;;;;4788292;29;20079;-76
2022/06/01 03:19:50;;;;;;;2.03;1.02;;;11.50;88.00;;;;;;4772940;30;20536;-76
2022/06/01 03:22:17;;;;;;;2.03;1.05;;;11.50;88.10;;;;;;4787220;30;20082;-76
2022/06/01 03:24:44;;;;;;;1.77;0.90;;;11.40;88.10;;;;;;4775456;29;20078;-76
2022/06/01 03:27:11;;;;;;;2.83;1.25;;;11.40;88.30;;;;;;4772250;30;20597;-77
2022/06/01 03:29:38;;;;;;;2.58;1.17;;;11.40;88.30;;;;;;4772571;30;20145;-77
2022/06/01 03:32:06;;;;;;;2.45;1.08;;;11.40;88.30;;;;;;4787431;29;20146;-76
2022/06/01 03:34:33;;;;;;;2.67;1.35;;;11.40;88.30;;;;;;4790636;29;20051;-76
2022/06/01 03:37:02;;;;;;;2.28;1.23;;;11.40;88.40;;;;;;4787461;29;20489;-76
2022/06/01 03:39:29;;;;;;;2.80;1.38;;;11.40;88.50;;;;;;4785327;29;20062;-77
2022/06/01 03:41:56;;;;;;;2.15;1.05;;;11.30;88.60;;;;;;4782731;30;20051;-77
2022/06/01 03:47:09;;;;;;;2.35;1.10;;;11.30;88.70;;;;;;4801837;29;20063;-76
2022/06/01 03:49:37;;;;;;;2.28;1.02;;;11.20;88.70;;;;;;4787106;30;20475;-76
2022/06/01 03:52:05;;;;;;;2.85;1.50;;;11.20;88.80;;;;;;4787102;29;20108;-77
2022/06/01 03:54:32;;;;;;;3.15;1.02;;;11.20;88.90;;;;;;4808478;29;20097;-76
2022/06/01 03:56:59;;;;;;;2.00;0.95;;;11.20;88.90;;;;;;4791626;29;20054;-76
2022/06/01 03:59:29;;;;;;;2.03;1.08;;;11.20;88.90;;;;;;4791873;29;20035;-76
2022/06/01 04:01:59;;;;;;;1.77;0.80;;;11.20;88.90;;;;;;4815028;29;20051;-76
2022/06/01 04:04:26;;;;;;;2.08;0.98;;;11.10;88.90;;;;;;4786912;30;20051;-77
2022/06/01 04:06:53;;;;;;;3.15;1.63;;;11.10;88.90;;;;;;4786717;29;20096;-77
2022/06/01 04:09:20;;;;;;;2.42;1.20;;;11.10;88.90;;;;;;4797141;29;20080;-78
2022/06/01 04:11:47;;;;;;;2.30;1.23;;;11.10;88.90;;;;;;4786662;30;20047;-76
2022/06/01 04:14:14;;;;;;;2.75;1.58;;;11.10;88.90;;;;;;4786529;30;20082;-76
2022/06/01 04:16:41;;;;;;;2.08;1.05;;;11.10;88.90;;;;;;4786595;30;20126;-76
2022/06/01 04:19:08;;;;;;;2.80;1.25;;;11.10;88.90;;;;;;4800966;29;20055;-76
2022/06/01 04:21:38;;;;;;;2.25;1.13;;;11.20;89.00;;;;;;4800650;29;20058;-77
2022/06/01 04:24:10;;;;;;;4.07;1.30;;;11.20;89.00;;;;;;4797865;29;20051;-77
2022/06/01 04:26:37;;;;;;;2.72;1.23;;;11.20;89.00;;;;;;4795650;29;20059;-77
2022/06/01 04:29:04;;;;;;;2.70;1.33;;;11.20;88.90;;;;;;4807772;29;20394;-76
2022/06/01 04:31:32;;;;;;;2.60;1.50;;;11.30;88.90;;;;;;4786329;30;20058;-80
2022/06/01 04:34:00;;;;;;;2.20;1.10;;;11.30;88.90;;;;;;4786469;29;20051;-78
2022/06/01 04:36:27;;;;;;;2.58;1.30;;;11.40;88.90;;;;;;4771910;30;20061;-76
2022/06/01 04:38:55;;;;;;;2.92;2.00;;;11.40;88.80;;;;;;4786508;29;20043;-77
2022/06/01 04:41:22;;;;;;;2.83;1.73;;;11.50;88.80;;;;;;4771507;30;20078;-80
2022/06/01 04:43:49;;;;;;;3.63;2.33;;;11.50;88.70;;;;;;4786235;30;20089;-80
2022/06/01 04:46:16;;;;;;;3.75;2.15;;;11.60;88.70;;;;;;4786897;29;20490;-79
2022/06/01 04:48:43;;;;;;;4.00;2.30;;;11.70;88.60;;;;;;4782822;29;20162;-79
2022/06/01 04:51:11;;;;;;;5.43;3.28;;;11.80;88.50;;;;;;4771596;30;20077;-79
2022/06/01 04:53:42;;;;;;;7.00;5.00;;;11.90;88.50;;;;;;4786585;29;20062;-79
2022/06/01 04:56:13;;;;;;;7.13;4.50;;;11.90;88.50;;;;;;4787805;29;20616;-79
2022/06/01 04:58:40;;;;;;;6.40;4.47;;;11.90;88.50;;;;;;4771443;30;20055;-78
2022/06/01 05:01:07;;;;;;;7.45;5.40;;;11.90;88.50;;;;;;4771935;30;20563;-78
2022/06/01 05:03:35;;;;;;;10.73;7.07;;;11.90;89.00;;;;;;4785970;29;20051;-78
2022/06/01 05:06:02;;;;;;;8.73;6.03;;;11.90;88.50;;;;;;4801207;29;20058;-76
2022/06/01 05:08:29;;;;;;;8.55;6.35;;;11.90;88.40;;;;;;4793072;29;20059;-80
2022/06/01 05:10:56;;;;;;;7.15;4.80;;;12.00;88.30;;;;;;4787764;29;20051;-78
2022/06/01 05:13:23;;;;;;;7.78;5.35;;;12.10;88.20;;;;;;4770956;30;20094;-78
2022/06/01 05:15:52;;;;;;;7.65;5.38;;;12.10;88.20;;;;;;4782081;29;20540;-79
2022/06/01 05:18:20;;;;;;;7.53;5.10;;;12.10;88.20;;;;;;4793805;29;20157;-78
2022/06/01 05:20:48;;;;;;;8.25;5.72;;;12.10;88.40;;;;;;4770645;29;20153;-77
2022/06/01 05:23:18;;;;;;;8.38;4.80;;;12.10;88.40;;;;;;4800945;29;20411;-78
2022/06/01 05:25:47;;;;;;;8.80;5.88;;;12.00;88.40;;;;;;4786004;29;20051;-80
2022/06/01 05:28:20;;;;;;;9.75;6.90;;;12.00;88.50;;;;;;4788510;29;20055;-78
2022/06/01 05:30:48;;;;;;;8.18;5.60;;;11.90;88.60;;;;;;4785696;30;20059;-79
2022/06/01 05:33:23;;;;;;;8.05;5.57;;;11.90;88.70;;;;;;4768378;30;20060;-81
2022/06/01 05:35:50;;;;;;;6.55;4.30;;;11.90;88.80;;;;;;4802279;29;20061;-82
2022/06/01 05:38:17;;;;;;;6.53;4.40;;;11.80;88.80;;;;;;4776062;30;20405;-82
2022/06/01 05:40:46;;;;;;;7.85;4.82;;;11.90;88.90;;;;;;4791342;29;20051;-77
2022/06/01 05:43:15;;;;;;;7.68;5.50;;;12.00;88.80;;;;;;4789957;30;20486;-80
2022/06/01 05:45:43;;;;;;;9.15;6.32;;;12.00;88.70;;;;;;4801948;29;20063;-79
2022/06/01 05:48:13;;;;;;;11.65;6.82;;;12.10;88.60;;;;;;4773930;30;20093;-78
2022/06/01 05:50:40;;;;;;;9.20;6.38;;;12.20;88.40;;;;;;4788648;29;20059;-78
2022/06/01 05:53:08;;;;;;;9.48;5.72;;;12.20;88.30;;;;;;4758949;30;20062;-76
2022/06/01 05:55:36;;;;;;;7.97;5.72;;;12.20;88.20;;;;;;4798040;29;20070;-77
2022/06/01 05:58:21;;;;;;;11.75;8.38;;;12.30;88.10;;;;;;4818707;29;20051;-76
2022/06/01 06:00:49;;;;;;;12.75;8.10;;;12.40;88.10;;;;;;4803449;29;20047;-79
2022/06/01 06:03:18;;;;;;;10.43;7.55;;;12.40;88.10;;;;;;4788369;29;20134;-79
2022/06/01 06:09:08;;;;;;;6.97;5.35;;;12.60;87.90;;;;;;4804664;29;20122;-77
2022/06/01 06:11:37;;;;;;;11.48;7.35;;;12.60;87.80;;;;;;4782282;29;20103;-77
2022/06/01 06:14:05;;;;;;;7.93;5.90;;;12.70;88.00;;;;;;4799109;29;20054;-76
2022/06/01 06:16:42;;;;;;;7.97;6.18;;;12.80;87.80;;;;;;4766787;30;20047;-78
2022/06/01 06:19:12;;;;;;;10.98;6.43;;;12.80;87.60;;;;;;4793149;29;20053;-77
2022/06/01 06:21:39;;;;;;;9.52;5.97;;;12.90;87.60;;;;;;4788569;30;20451;-77
2022/06/01 06:24:12;;;;;;;8.07;6.35;;;12.90;87.40;;;;;;4803637;29;20108;-77
2022/06/01 06:26:42;;;;;;;7.47;5.90;;;13.00;87.80;;;;;;4790976;29;20070;-76
2022/06/01 06:29:12;;;;;;;7.20;5.30;;;12.90;87.20;;;;;;4787954;30;20082;-77
2022/06/01 06:31:39;;;;;;;6.15;4.75;;;13.00;87.00;;;;;;4773557;30;20055;-76
2022/06/01 06:34:14;;;;;;;6.32;4.28;;;12.90;87.00;;;;;;4794797;29;20062;-77
2022/06/01 06:36:41;;;;;;;5.95;4.15;;;13.00;86.90;;;;;;4784211;29;20051;-77
2022/06/01 06:39:08;;;;;;;6.65;4.70;;;13.00;86.80;;;;;;4787888;30;20043;-77
2022/06/01 06:41:35;;;;;;;8.02;5.10;;;13.10;86.60;;;;;;4779510;29;20078;-77
2022/06/01 06:44:02;;;;;;;7.20;5.38;;;13.20;86.40;;;;;;4800181;29;20394;-76
2022/06/01 06:46:30;;;;;;;8.25;5.68;;;13.20;86.30;;;;;;4780199;29;20100;-75
2022/06/01 06:48:57;;;;;;;7.53;5.65;;;13.30;86.20;;;;;;4787469;29;20063;-76
2022/06/01 06:51:25;;;;;;;8.30;6.03;;;13.40;86.10;;;;;;4787208;29;20102;-76
2022/06/01 06:53:53;;;;;;;7.28;5.68;;;13.40;85.90;;;;;;4772498;29;20086;-76
2022/06/01 06:56:20;;;;;;;9.63;5.93;;;13.50;85.80;;;;;;4772910;30;20055;-76
2022/06/01 06:58:48;;;;;;;7.75;5.72;;;13.60;85.60;;;;;;4790189;29;20047;-76
2022/06/01 07:01:16;;;;;;;8.45;6.13;;;13.60;85.50;;;;;;4788053;30;20043;-77
2022/06/01 07:03:43;;;;;;;7.90;5.90;;;13.70;85.40;;;;;;4787481;29;20044;-77
2022/06/01 07:06:13;;;;;;;7.82;5.57;;;13.80;85.20;;;;;;4773143;29;20126;-76
2022/06/01 07:08:43;;;;;;;8.32;5.47;;;13.90;85.10;;;;;;4786493;29;20082;-75
2022/06/01 07:11:12;;;;;;;7.95;5.38;;;14.00;85.00;;;;;;4790884;29;20047;-74
2022/06/01 07:13:39;;;;;;;5.65;4.25;;;14.10;84.80;;;;;;4801934;29;20108;-75
2022/06/01 07:16:11;;;;;;;6.57;3.83;;;14.20;84.60;;;;;;4786576;29;20115;-75
2022/06/01 07:18:43;;;;;;;8.10;5.13;;;14.30;84.60;;;;;;4786763;29;20082;-74
2022/06/01 07:21:10;;;;;;;7.13;4.72;;;14.40;84.20;;;;;;4772497;29;20512;-76
2022/06/01 07:23:37;;;;;;;6.72;4.05;;;14.50;84.10;;;;;;4787267;30;20053;-75
2022/06/01 07:26:11;;;;;;;6.00;4.45;;;14.50;83.70;;;;;;4772632;30;20082;-75
2022/06/01 07:28:39;;;;;;;6.10;3.90;;;14.60;83.40;;;;;;4788620;29;20150;-73
2022/06/01 07:31:07;;;;;;;4.60;3.53;;;14.50;83.40;;;;;;4787913;29;20093;-73
2022/06/01 07:33:35;;;;;;;4.80;3.60;;;14.50;83.50;;;;;;4785993;29;20063;-73
2022/06/01 07:36:06;;;;;;;4.65;3.50;;;14.50;83.70;;;;;;4785845;29;20051;-74
2022/06/01 07:44:43;;;;;;;4.03;2.92;;;14.80;82.70;;;;;;4769569;30;20051;-75
2022/06/01 07:47:12;;;;;;;3.33;2.30;;;14.70;82.30;;;;;;4764005;30;20048;-77
2022/06/01 07:49:59;;;;;;;3.40;2.40;;;14.60;82.50;;;;;;4765067;30;20055;-77
2022/06/01 07:52:46;;;;;;;3.88;2.25;;;14.60;82.60;;;;;;4759694;30;20051;-76
2022/06/01 07:55:13;;;;;;;3.95;2.30;;;14.70;83.40;;;;;;4768368;30;20456;-76
2022/06/01 07:57:40;;;;;;;4.05;2.65;;;14.80;82.40;;;;;;4768021;30;20105;-77
2022/06/01 08:00:08;;;;;;;4.20;2.40;;;15.00;81.50;;;;;;4770309;30;20688;-76
2022/06/01 08:02:40;;;;;;;3.67;2.60;;;15.10;81.00;;;;;;4755292;30;20075;-76
2022/06/01 08:05:09;;;;;;;5.60;2.70;;;15.20;80.50;;;;;;4753920;30;20059;-76
2022/06/01 08:07:36;;;;;;;3.50;2.45;;;15.20;80.30;;;;;;4768685;30;20052;-80
2022/06/01 08:10:04;;;;;;;3.90;2.75;;;15.40;79.80;;;;;;4781203;29;20127;-80
2022/06/01 08:15:18;;;;;;;3.83;2.20;;;15.40;79.20;;;;;;4770209;30;20086;-80
2022/06/01 08:17:57;;;;;;;4.05;2.70;;;15.50;78.90;;;;;;4764723;30;20502;-79
2022/06/01 08:20:25;;;;;;;4.03;2.67;;;15.60;77.70;;;;;;4768321;30;20055;-81
2022/06/01 08:22:53;;;;;;;3.08;2.15;;;15.50;78.20;;;;;;4776352;29;20055;-80
2022/06/01 08:25:25;;;;;;;3.65;2.00;;;15.30;78.50;;;;;;4755288;30;20105;-80
2022/06/01 08:27:52;;;;;;;3.95;2.55;;;15.10;78.70;;;;;;4770159;30;20117;-81
2022/06/01 08:30:23;;;;;;;4.25;2.13;;;15.00;79.00;;;;;;4792779;29;20079;-80
2022/06/01 08:32:51;;;;;;;5.32;1.92;;;14.90;79.30;;;;;;4769280;30;20414;-80
2022/06/01 08:35:30;;;;;;;3.15;1.80;;;15.10;79.20;;;;;;4768896;30;20444;-80
2022/06/01 08:37:57;;;;;;;2.80;1.70;;;15.30;78.50;;;;;;4783447;29;20083;-77
2022/06/01 08:40:50;;;;;;;2.92;1.70;;;15.30;78.20;;;;;;4753076;30;20106;-77
2022/06/01 08:43:18;;;;;;;;;;;15.30;78.00;;;;;;4767128;30;20059;-77
2022/06/01 08:45:50;;;;;;;2.58;1.25;;;15.60;77.80;;;;;;4761813;30;19930;-76
2022/06/01 08:48:24;;;;;;;5.13;1.75;;;15.90;77.10;;;;;;4761530;30;20510;-76
2022/06/01 08:50:52;;;;;;;3.22;1.88;;;16.20;76.40;;;;;;4801066;29;20397;-77
2022/06/01 08:53:21;;;;;;;2.95;1.42;;;16.70;76.10;;;;;;4794250;29;20042;-77
2022/06/01 08:55:59;;;;;;;3.20;1.80;;;17.00;75.10;;;;;;4793416;29;20731;-77
2022/06/01 08:58:39;;;;;;;3.10;2.08;;;17.20;73.70;;;;;;4792982;29;20043;-77
2022/06/01 09:01:16;;;;;;;4.38;1.80;;;17.30;72.10;;;;;;4794666;29;20047;-77
2022/06/01 09:03:52;;;;;;;4.15;1.70;;;17.30;72.20;;;;;;4776734;29;20047;-78
2022/06/01 09:06:29;;;;;;;2.60;1.35;;;17.30;72.20;;;;;;4799857;29;20058;-77
2022/06/01 09:08:56;;;;;;;2.80;1.38;;;17.40;72.60;;;;;;4791685;29;20070;-77
2022/06/01 09:11:31;;;;;;;3.33;1.90;;;17.70;72.50;;;;;;4773131;29;20089;-77
2022/06/01 09:14:12;;;;;;;3.00;1.75;;;17.80;70.80;;;;;;4770707;30;20083;-77
2022/06/01 09:16:46;;;;;;;3.33;1.70;;;17.80;70.20;;;;;;4800779;29;20058;-76
2022/06/01 09:19:20;;;;;;;2.28;1.42;;;17.60;70.00;;;;;;4791088;29;20529;-77
2022/06/01 09:24:44;;;;;;;2.40;1.00;;;17.60;70.00;;;;;;4787117;29;20142;-76
2022/06/01 09:27:13;;;;;;;4.68;1.42;;;17.90;69.20;;;;;;4775230;29;20436;-78
2022/06/01 09:29:49;;;;;;;2.17;1.00;;;17.80;68.90;;;;;;4774786;30;20035;-78
2022/06/01 09:32:36;;;;;;;1.77;1.10;;;17.80;69.30;;;;;;4789485;29;20047;-77
2022/06/01 09:35:09;;;;;;;3.00;1.45;;;17.60;68.30;;;;;;4800052;29;20059;-77
2022/06/01 09:37:46;;;;;;;1.88;1.15;;;17.30;68.70;;;;;;4774756;30;20108;-77
2022/06/01 09:40:42;;;;;;;2.97;1.40;;;17.10;69.10;;;;;;4798978;29;20053;-75
2022/06/01 09:43:22;;;;;;;2.30;1.30;;;16.90;68.90;;;;;;4782954;29;20051;-75
2022/06/01 09:45:56;;;;;;;3.25;1.30;;;16.80;69.30;;;;;;4782032;30;20142;-75
2022/06/01 09:48:36;;;;;;;2.17;1.20;;;17.10;69.20;;;;;;4777192;29;20086;-76
2022/06/01 09:51:12;;;;;;;2.50;1.50;;;17.40;68.50;;;;;;4803951;29;20051;-75
2022/06/01 09:53:50;;;;;;;2.55;1.67;;;17.60;68.00;;;;;;4804923;29;20035;-77
2022/06/01 09:56:40;;;;;;;2.92;1.90;;;17.80;67.60;;;;;;4789662;29;20120;-76
2022/06/01 10:07:44;;;;;;;2.92;1.70;;;17.00;67.70;;;;;;4773881;29;20055;-75
2022/06/01 10:10:22;;;;;;;3.42;2.22;;;16.40;68.50;;;;;;4774476;30;20221;-76
2022/06/01 10:12:56;;;;;;;1.85;1.40;;;16.00;69.30;;;;;;4804542;29;20108;-76
2022/06/01 10:15:27;;;;;;;2.10;1.15;;;16.00;70.50;;;;;;4776906;30;20059;-75
2022/06/01 10:18:01;;;;;;;1.67;1.02;;;16.30;69.60;;;;;;4774666;29;20478;-74
2022/06/01 10:20:45;;;;;;;1.23;0.88;;;16.60;69.20;;;;;;4791366;29;20048;-74
2022/06/01 10:23:49;;;;;;;1.60;0.93;;;16.90;68.30;;;;;;4789717;29;20043;-75
2022/06/01 10:26:36;;;;;;;1.85;0.93;;;17.10;67.10;;;;;;4801824;29;20421;-76
2022/06/01 10:29:08;;;;;;;1.77;1.08;;;17.30;66.50;;;;;;4789649;29;20070;-75
2022/06/01 10:31:54;;;;;;;2.10;1.17;;;17.50;66.30;;;;;;4764667;30;20051;-75
2022/06/01 10:34:25;;;;;;;2.58;1.70;;;17.70;66.00;;;;;;4787576;29;20085;-75
2022/06/01 10:37:28;;;;;;;2.40;1.50;;;17.90;64.90;;;;;;4804441;29;20059;-75
2022/06/01 10:40:09;;;;;;;2.85;1.48;;;18.00;63.90;;;;;;4789012;29;20047;-75
2022/06/01 10:45:32;;;;;;;1.55;1.13;;;18.40;63.50;;;;;;4784905;29;20055;-76
2022/06/01 10:48:12;;;;;;;2.53;1.40;;;18.70;63.10;;;;;;4776346;29;20146;-77
2022/06/01 10:50:50;;;;;;;2.63;0.77;;;18.80;62.50;;;;;;4807806;29;20074;-76
2022/06/01 10:53:32;;;;;;;1.40;0.80;;;18.90;62.00;;;;;;4787494;29;20051;-75
2022/06/01 10:55:59;;;;;;;1.60;0.85;;;18.70;62.20;;;;;;4802436;29;20040;-76
2022/06/01 10:58:27;;;;;;;1.50;1.10;;;18.50;62.50;;;;;;4802480;29;20497;-75
2022/06/01 11:01:19;;;;;;;2.00;1.30;;;18.20;62.00;;;;;;4817423;29;20124;-76
2022/06/01 11:04:05;;;;;;;2.92;1.33;;;17.70;62.70;;;;;;4801123;29;20043;-76
2022/06/01 11:06:41;;;;;;;3.33;1.10;;;17.40;64.00;;;;;;4772743;30;20176;-77
2022/06/01 11:09:14;;;;;;;2.58;1.20;;;17.20;65.00;;;;;;4802520;29;20048;-75
2022/06/01 11:11:54;;;;;;;2.15;1.17;;;17.00;65.70;;;;;;4797352;29;20055;-74
2022/06/01 11:14:30;;;;;;;1.98;1.30;;;16.90;65.90;;;;;;4772904;30;20673;-81
2022/06/01 11:17:06;;;;;;;1.70;0.98;;;17.00;66.20;;;;;;4802798;29;20051;-75
2022/06/01 11:19:52;;;;;;;1.92;0.70;;;17.00;66.00;;;;;;4802546;29;20047;-80
2022/06/01 11:22:52;;;;;;;0.75;0.45;;;17.30;66.10;;;;;;4787573;30;20055;-76
2022/06/01 11:25:38;;;;;;;1.42;0.50;;;17.60;65.40;;;;;;4793846;29;20579;-76
2022/06/01 11:28:37;;;;;;;0.88;0.40;;;17.70;64.40;;;;;;4787160;29;20051;-78
2022/06/01 11:31:13;;;;;;;0.75;0.22;;;17.70;64.40;;;;;;4787425;29;20055;-78
2022/06/01 11:33:49;;;;;;;0.90;0.40;;;17.70;64.50;;;;;;4796839;29;20112;-76
2022/06/01 11:36:31;;;;;;;0.82;0.40;;;17.80;64.60;;;;;;4805893;29;20051;-80
2022/06/01 11:39:10;;;;;;;1.10;0.60;;;17.70;64.40;;;;;;4805721;29;20059;-77
2022/06/01 11:41:41;;;;;;;1.17;0.60;;;17.70;64.60;;;;;;4800364;29;20047;-80
2022/06/01 11:44:18;;;;;;;2.40;0.93;;;18.00;64.40;;;;;;4786067;29;20138;-75
2022/06/01 11:47:10;;;;;;;1.80;0.85;;;18.20;64.10;;;;;;4786271;29;20055;-75
2022/06/01 11:50:15;;;;;;;1.35;0.90;;;18.30;64.00;;;;;;4771543;30;20071;-82
2022/06/01 11:52:52;;;;;;;1.25;0.60;;;18.10;64.40;;;;;;4771974;30;20055;-83
2022/06/01 11:55:33;;;;;;;1.88;0.70;;;18.10;64.80;;;;;;4802129;29;20116;-81
2022/06/01 11:58:06;;;;;;;1.80;0.80;;;18.40;64.80;;;;;;4796589;29;20063;-85
2022/06/01 12:00:40;;;;;;;1.25;0.82;;;19.10;64.00;;;;;;4814434;29;20822;-85
2022/06/01 12:03:19;;;;;;;1.73;1.15;;;19.60;63.30;;;;;;4772590;30;20047;-84
2022/06/01 12:06:12;;;;;;;3.00;1.15;;;19.80;62.60;;;;;;4786091;29;20055;-86
2022/06/01 12:08:42;;;;;;;;;;;19.90;62.60;;;;;;4774894;29;20094;-85
2022/06/01 12:11:35;;;;;;;3.20;1.17;;;20.00;62.70;;;;;;4788199;30;19929;-84
2022/06/01 12:14:17;;;;;;;2.95;0.98;;;20.30;62.50;;;;;;4786855;29;20108;-83
2022/06/01 12:16:44;;;;;;;1.40;0.80;;;20.30;62.30;;;;;;4799459;29;20055;-82
2022/06/01 12:19:19;;;;;;;1.45;0.88;;;20.50;62.30;;;;;;4786500;30;20116;-84
2022/06/01 12:21:46;;;;;;;2.00;0.95;;;20.50;62.10;;;;;;4792827;29;20091;-84
2022/06/01 12:30:17;;;;;;;1.95;0.70;;;20.00;63.90;;;;;;4798462;29;20047;-82
2022/06/01 12:32:59;;;;;;;6.03;1.05;;;20.90;62.30;;;;;;4775574;30;20096;-82
2022/06/01 12:35:32;;;;;;;2.80;0.90;;;21.10;60.90;;;;;;4797044;29;20105;-84
2022/06/01 12:38:15;;;;;;;1.50;0.40;;;21.20;60.70;;;;;;4785439;30;21744;-85
2022/06/01 12:40:57;;;;;;;0.70;0.30;;;21.20;58.00;;;;;;4794074;29;20083;-84
2022/06/01 12:43:25;;;;;;;1.33;0.45;;;21.20;56.90;;;;;;4771467;30;20047;-83
2022/06/01 12:45:54;;;;;;;0.45;0.20;;;21.10;56.20;;;;;;4771417;30;20185;-82
2022/06/01 12:48:23;;;;;;;0.52;0.40;;;21.20;56.50;;;;;;4786027;29;20117;-81
2022/06/01 12:50:55;;;;;;;0.40;0.20;;;21.10;55.80;;;;;;4786315;29;20068;-82
2022/06/01 12:53:27;;;;;;;0.95;0.30;;;20.80;55.60;;;;;;4786064;29;20150;-82
2022/06/01 12:56:09;;;;;;;0.38;0.20;;;21.20;54.00;;;;;;4801122;29;20509;-85
2022/06/01 12:58:36;;;;;;;0.47;0.17;;;21.90;52.70;;;;;;4801028;29;20051;-84
2022/06/01 13:01:04;;;;;;;0.30;0.17;;;22.60;51.40;;;;;;4771122;30;20043;-84
2022/06/01 13:03:32;;;;;;;0.10;0.10;;;23.10;49.90;;;;;;4785955;30;20051;-84
2022/06/01 13:06:12;;;;;;;0.60;0.30;;;23.60;49.00;;;;;;4801141;29;20138;-78
2022/06/01 13:08:40;;;;;;;0.47;0.22;;;23.40;48.00;;;;;;4787109;29;20119;-78
2022/06/01 13:11:22;;;;;;;0.40;0.20;;;22.70;47.80;;;;;;4785755;30;20056;-79
2022/06/01 13:13:51;;;;;;;0.85;0.28;;;21.90;48.60;;;;;;4771410;30;20051;-82
2022/06/01 13:16:24;;;;;;;0.50;0.25;;;21.30;48.80;;;;;;4785861;30;20102;-81
2022/06/01 13:18:51;;;;;;;0.57;0.30;;;21.20;49.60;;;;;;4785626;30;20086;-82
2022/06/01 13:21:35;;;;;;;2.05;0.30;;;21.20;48.40;;;;;;4793787;29;20474;-83
2022/06/01 13:24:07;;;;;;;0.50;0.30;;;21.40;48.00;;;;;;4787660;29;20100;-81
2022/06/01 13:26:43;;;;;;;;;;;21.90;47.40;;;;;;4806972;29;20074;-81
2022/06/01 13:29:22;;;;;;;0.90;0.30;;;22.00;46.90;;;;;;4776180;29;19929;-80
2022/06/01 13:31:54;;;;;;;0.98;0.40;;;21.60;47.80;;;;;;4791115;29;20043;-83
2022/06/01 13:34:39;;;;;;;0.85;0.57;;;21.20;47.00;;;;;;4800276;29;20043;-81
2022/06/01 13:37:16;;;;;;;0.60;0.30;;;20.90;48.00;;;;;;4770739;30;20043;-83
2022/06/01 13:39:59;;;;;;;0.90;0.30;;;20.50;48.50;;;;;;4789114;29;20081;-81
2022/06/01 13:42:32;;;;;;;1.10;0.35;;;20.90;48.80;;;;;;4785596;29;20050;-82
2022/06/01 13:45:15;;;;;;;1.02;0.40;;;21.10;48.50;;;;;;4785829;30;20414;-82
2022/06/01 13:47:44;;;;;;;0.50;0.22;;;21.20;48.30;;;;;;4785758;29;20051;-81
2022/06/01 13:50:14;;;;;;;0.88;0.40;;;21.30;48.10;;;;;;4785596;29;20063;-82
2022/06/01 13:53:02;;;;;;;0.80;0.30;;;21.00;48.10;;;;;;4785687;30;20055;-82
2022/06/01 13:55:35;;;;;;;0.80;0.20;;;21.10;48.60;;;;;;4800805;29;20586;-83